Time;durP1;ratioP1;P1;durP2;ratioP2;P2;SDS_P1;SDS_P2;PMS_P1;PMS_P2;Temp;Humidity;BMP_temperature;BMP_pressure;BME280_temperature;BME280_humidity;BME280_pressure;Samples;Min_cycle;Max_cycle;Signal;HPM_P1;HPM_P2
2023/03/28 00:00:27;;;;;;;11.37;1.90;;;;;;;-145.18;100.00;60484.78;4993491;28;20042;-67
2023/03/28 00:02:53;;;;;;;14.30;2.20;;;;;;;-145.18;100.00;60484.78;4993672;28;20471;-68
2023/03/28 00:05:18;;;;;;;9.17;1.70;;;;;;;-145.18;100.00;60484.78;4993949;28;20549;-66
2023/03/28 00:07:44;;;;;;;17.17;2.67;;;;;;;-145.18;100.00;60484.78;4992949;28;20121;-67
2023/03/28 00:10:09;;;;;;;18.07;2.80;;;;;;;-145.18;100.00;60484.78;4993733;28;20032;-67
2023/03/28 00:12:35;;;;;;;14.30;2.33;;;;;;;-145.18;100.00;60484.78;4993784;28;20038;-67
2023/03/28 00:15:03;;;;;;;12.10;1.97;;;;;;;-145.18;100.00;60484.78;4993567;28;20031;-67
2023/03/28 00:17:29;;;;;;;15.40;2.80;;;;;;;-145.18;100.00;60484.78;4993443;28;20026;-68
2023/03/28 00:19:56;;;;;;;23.23;3.77;;;;;;;-145.18;100.00;60484.78;4993092;28;20482;-67
2023/03/28 00:22:21;;;;;;;16.33;2.33;;;;;;;-145.18;100.00;60484.78;4993087;28;20501;-67
2023/03/28 00:24:47;;;;;;;20.73;3.13;;;;;;;-145.18;100.00;60484.78;4993141;28;20031;-67
2023/03/28 00:27:14;;;;;;;8.77;2.20;;;;;;;-145.18;100.00;60484.78;4993109;28;20037;-66
2023/03/28 00:29:40;;;;;;;14.17;2.63;;;;;;;-145.18;100.00;60484.78;4993182;28;20061;-67
2023/03/28 00:32:05;;;;;;;16.67;2.90;;;;;;;-145.18;100.00;60484.78;4992883;28;20026;-67
2023/03/28 00:34:31;;;;;;;13.03;2.30;;;;;;;-145.18;100.00;60484.78;4994848;28;20085;-68
2023/03/28 00:36:57;;;;;;;13.27;3.03;;;;;;;-145.18;100.00;60484.78;4993261;28;20036;-66
2023/03/28 00:39:22;;;;;;;11.63;2.00;;;;;;;-145.18;100.00;60484.78;4993216;28;20026;-67
2023/03/28 00:41:48;;;;;;;20.27;2.70;;;;;;;-145.18;100.00;60484.78;4993331;28;20438;-67
2023/03/28 00:44:58;;;;;;;14.67;2.17;;;;;;;-145.18;100.00;60484.78;4993217;28;20026;-67
2023/03/28 00:47:57;;;;;;;19.13;2.53;;;;;;;-145.18;100.00;60484.78;4990652;28;20603;-68
2023/03/28 00:50:29;;;;;;;13.47;2.63;;;;;;;-145.18;100.00;60484.78;4992488;28;20040;-67
2023/03/28 00:53:18;;;;;;;11.67;1.97;;;;;;;-145.18;100.00;60484.78;4993257;28;20030;-67
2023/03/28 00:55:57;;;;;;;12.03;2.60;;;;;;;-145.18;100.00;60484.78;4994886;28;20018;-67
2023/03/28 00:58:26;;;;;;;14.23;2.70;;;;;;;-145.18;100.00;60484.78;4992920;28;20041;-68
2023/03/28 01:04:19;;;;;;;16.60;2.87;;;;;;;-145.18;100.00;60484.78;4996333;28;20038;-72
2023/03/28 01:06:47;;;;;;;15.02;2.63;;;;;;;-145.18;100.00;60484.78;4993093;28;20046;-72
2023/03/28 01:09:15;;;;;;;16.40;2.70;;;;;;;-145.18;100.00;60484.78;4993289;28;20088;-72
2023/03/28 01:11:43;;;;;;;16.07;2.67;;;;;;;-145.18;100.00;60484.78;4993041;28;20027;-72
2023/03/28 01:14:12;;;;;;;19.50;2.80;;;;;;;-145.18;100.00;60484.78;4993372;28;20171;-72
2023/03/28 01:16:40;;;;;;;18.23;2.77;;;;;;;-145.18;100.00;60484.78;4992875;28;20530;-71
2023/03/28 01:19:14;;;;;;;11.00;2.40;;;;;;;-145.18;100.00;60484.78;4993932;28;20034;-72
2023/03/28 01:22:32;;;;;;;23.43;3.67;;;;;;;-145.18;100.00;60484.78;4995675;28;20120;-72
2023/03/28 01:25:27;;;;;;;13.93;2.73;;;;;;;-145.18;100.00;60484.78;4943488;28;20039;-72
2023/03/28 01:28:04;;;;;;;17.73;2.87;;;;;;;-145.18;100.00;60484.78;4936272;29;20527;-72
2023/03/28 01:31:05;;;;;;;13.33;2.57;;;;;;;-145.18;100.00;60484.78;4955334;28;20027;-71
2023/03/28 01:34:07;;;;;;;15.67;3.33;;;;;;;-145.18;100.00;60484.78;4898752;29;20084;-72
2023/03/28 01:36:58;;;;;;;18.80;2.97;;;;;;;-145.18;100.00;60484.78;4898650;29;20037;-72
2023/03/28 01:40:19;;;;;;;18.67;2.88;;;;;;;-145.18;100.00;60484.78;4898221;29;20148;-72
2023/03/28 01:43:04;;;;;;;19.77;2.67;;;;;;;-145.18;100.00;60484.78;4881233;29;20164;-72
2023/03/28 01:45:50;;;;;;;22.80;3.63;;;;;;;-145.18;100.00;60484.78;4898700;29;20060;-72
2023/03/28 01:48:29;;;;;;;19.73;2.70;;;;;;;-145.18;100.00;60484.78;4898249;29;20053;-72
2023/03/28 01:51:20;;;;;;;19.50;3.33;;;;;;;-145.18;100.00;60484.78;4898399;29;20069;-72
2023/03/28 01:54:35;;;;;;;18.20;2.60;;;;;;;-145.18;100.00;60484.78;4898253;29;20104;-72
2023/03/28 01:57:23;;;;;;;22.73;2.60;;;;;;;-145.18;100.00;60484.78;4863463;29;20509;-72
2023/03/28 02:00:14;;;;;;;14.10;2.60;;;;;;;-145.18;100.00;60484.78;4875941;29;20069;-72
2023/03/28 02:02:48;;;;;;;15.73;3.03;;;;;;;-145.18;100.00;60484.78;4892324;29;20050;-72
2023/03/28 02:05:18;;;;;;;12.90;2.20;;;;;;;-145.18;100.00;60484.78;4880805;29;20293;-71
2023/03/28 02:07:45;;;;;;;15.60;2.40;;;;;;;-145.18;100.00;60484.78;4911831;29;20511;-72
2023/03/28 02:10:14;;;;;;;21.40;2.60;;;;;;;-145.18;100.00;60484.78;4935979;29;20039;-72
2023/03/28 02:12:47;;;;;;;17.43;2.60;;;;;;;-145.18;100.00;60484.78;4936505;29;20114;-71
2023/03/28 02:15:16;;;;;;;12.17;2.57;;;;;;;-145.18;100.00;60484.78;4935783;29;20127;-72
2023/03/28 02:17:49;;;;;;;17.53;2.40;;;;;;;-145.18;100.00;60484.78;4935435;29;20040;-72
2023/03/28 02:20:18;;;;;;;17.07;3.07;;;;;;;-145.18;100.00;60484.78;4954003;29;20047;-72
2023/03/28 02:22:59;;;;;;;18.27;2.20;;;;;;;-145.18;100.00;60484.78;4952259;29;20078;-72
2023/03/28 02:25:25;;;;;;;16.58;2.55;;;;;;;-145.18;100.00;60484.78;4935937;29;20484;-72
2023/03/28 02:27:55;;;;;;;8.80;2.07;;;;;;;-145.18;100.00;60484.78;4935545;29;20036;-71
2023/03/28 02:30:21;;;;;;;11.23;3.00;;;;;;;-145.18;100.00;60484.78;4936269;29;20036;-72
2023/03/28 02:32:49;;;;;;;15.40;1.90;;;;;;;-145.18;100.00;60484.78;4945169;28;20073;-72
2023/03/28 02:35:16;;;;;;;13.40;2.23;;;;;;;-145.18;100.00;60484.78;4995252;28;20394;-72
2023/03/28 02:37:54;;;;;;;13.90;2.00;;;;;;;-145.18;100.00;60484.78;4995423;28;20030;-72
2023/03/28 02:40:54;;;;;;;9.63;1.87;;;;;;;-145.18;100.00;60484.78;4995354;28;20097;-71
2023/03/28 02:44:18;;;;;;;9.27;1.80;;;;;;;-145.18;100.00;60484.78;4995557;28;20030;-67
2023/03/28 02:47:15;;;;;;;10.13;1.60;;;;;;;-145.18;100.00;60484.78;4972818;28;20146;-67
2023/03/28 02:50:19;;;;;;;11.17;1.90;;;;;;;-145.18;100.00;60484.78;4971168;28;20034;-67
2023/03/28 02:53:09;;;;;;;9.00;2.23;;;;;;;-145.18;100.00;60484.78;4972220;28;20455;-67
2023/03/28 02:56:05;;;;;;;10.80;2.40;;;;;;;-145.18;100.00;60484.78;4972593;28;20043;-67
2023/03/28 02:58:37;;;;;;;11.53;2.10;;;;;;;-145.18;100.00;60484.78;4973353;28;20030;-67
2023/03/28 03:01:06;;;;;;;12.80;2.65;;;;;;;-145.18;100.00;60484.78;4973568;28;20069;-70
2023/03/28 03:03:36;;;;;;;10.97;2.30;;;;;;;-145.18;100.00;60484.78;4973260;28;20059;-70
2023/03/28 03:06:03;;;;;;;12.60;2.50;;;;;;;-145.18;100.00;60484.78;4973277;28;20105;-70
2023/03/28 03:08:29;;;;;;;11.43;2.20;;;;;;;-145.18;100.00;60484.78;4973247;28;20042;-70
2023/03/28 03:10:55;;;;;;;15.70;3.07;;;;;;;-145.18;100.00;60484.78;4973335;28;20122;-70
2023/03/28 03:13:20;;;;;;;12.80;2.70;;;;;;;-145.18;100.00;60484.78;4973015;28;20542;-70
2023/03/28 03:15:46;;;;;;;18.90;3.50;;;;;;;-145.18;100.00;60484.78;4972898;28;20035;-70
2023/03/28 03:18:15;;;;;;;11.07;3.03;;;;;;;-145.18;100.00;60484.78;4973097;28;20042;-70
2023/03/28 03:20:44;;;;;;;15.50;2.87;;;;;;;-145.18;100.00;60484.78;4985383;28;20117;-70
2023/03/28 03:23:11;;;;;;;17.47;2.93;;;;;;;-145.18;100.00;60484.78;4994261;28;20533;-70
2023/03/28 03:25:37;;;;;;;20.07;3.07;;;;;;;-145.18;100.00;60484.78;4995177;28;20113;-70
2023/03/28 03:28:03;;;;;;;17.00;3.03;;;;;;;-145.18;100.00;60484.78;5008273;28;20034;-70
2023/03/28 03:30:29;;;;;;;17.30;3.23;;;;;;;-145.18;100.00;60484.78;4994440;28;20120;-70
2023/03/28 03:32:55;;;;;;;21.23;3.47;;;;;;;-145.18;100.00;60484.78;4994552;28;20052;-70
2023/03/28 03:35:21;;;;;;;17.07;3.17;;;;;;;-145.18;100.00;60484.78;4994510;28;20034;-71
2023/03/28 03:37:47;;;;;;;18.07;3.37;;;;;;;-145.18;100.00;60484.78;4994175;28;20606;-70
2023/03/28 03:40:12;;;;;;;17.97;3.10;;;;;;;-145.18;100.00;60484.78;4994061;28;20398;-70
2023/03/28 03:42:38;;;;;;;25.20;4.27;;;;;;;-145.18;100.00;60484.78;4994500;28;20035;-70
2023/03/28 03:45:05;;;;;;;18.97;3.50;;;;;;;-145.18;100.00;60484.78;4994074;28;20042;-70
2023/03/28 03:47:31;;;;;;;28.53;3.70;;;;;;;-145.18;100.00;60484.78;4993596;28;20389;-70
2023/03/28 03:49:56;;;;;;;19.20;3.67;;;;;;;-145.18;100.00;60484.78;4993347;28;20026;-70
2023/03/28 03:52:22;;;;;;;19.77;3.00;;;;;;;-145.18;100.00;60484.78;4994275;28;20034;-70
2023/03/28 03:54:47;;;;;;;19.03;3.43;;;;;;;-145.18;100.00;60484.78;4993956;28;20054;-70
2023/03/28 03:57:13;;;;;;;16.90;3.67;;;;;;;-145.18;100.00;60484.78;5004743;28;20038;-70
2023/03/28 03:59:38;;;;;;;17.57;3.40;;;;;;;-145.18;100.00;60484.78;4997991;28;20038;-70
2023/03/28 04:02:03;;;;;;;27.83;3.40;;;;;;;-145.18;100.00;60484.78;4993584;28;20486;-70
2023/03/28 04:04:29;;;;;;;20.20;3.77;;;;;;;-145.18;100.00;60484.78;4993483;28;20026;-70
2023/03/28 04:06:57;;;;;;;24.37;3.40;;;;;;;-145.18;100.00;60484.78;4993885;28;20035;-70
2023/03/28 04:09:26;;;;;;;19.63;3.13;;;;;;;-145.18;100.00;60484.78;4993759;28;20074;-70
2023/03/28 04:11:52;;;;;;;19.03;3.20;;;;;;;-145.18;100.00;60484.78;4993403;28;20065;-70
2023/03/28 04:14:17;;;;;;;15.03;3.30;;;;;;;-145.18;100.00;60484.78;4993916;28;20057;-70
2023/03/28 04:16:43;;;;;;;11.80;2.83;;;;;;;-145.18;100.00;60484.78;4993322;28;20034;-70
2023/03/28 04:19:12;;;;;;;16.83;2.90;;;;;;;-145.18;100.00;60484.78;4993746;28;20035;-70
2023/03/28 04:21:41;;;;;;;18.03;2.83;;;;;;;-145.18;100.00;60484.78;4993315;28;20498;-70
2023/03/28 04:24:07;;;;;;;19.17;3.33;;;;;;;-145.18;100.00;60484.78;4993558;28;20161;-70
2023/03/28 04:26:36;;;;;;;19.67;2.80;;;;;;;-145.18;100.00;60484.78;4993997;28;20516;-70
2023/03/28 04:29:03;;;;;;;16.37;2.70;;;;;;;-145.18;100.00;60484.78;4993729;28;20504;-70
2023/03/28 04:31:28;;;;;;;17.17;3.00;;;;;;;-145.18;100.00;60484.78;4993789;28;20401;-70
2023/03/28 04:33:55;;;;;;;19.57;2.90;;;;;;;-145.18;100.00;60484.78;4993598;28;20125;-70
2023/03/28 04:36:21;;;;;;;18.13;2.73;;;;;;;-145.18;100.00;60484.78;4993744;28;20394;-70
2023/03/28 04:38:48;;;;;;;13.63;2.73;;;;;;;-145.18;100.00;60484.78;4993581;28;20034;-70
2023/03/28 04:41:15;;;;;;;12.97;2.37;;;;;;;-145.18;100.00;60484.78;4993554;28;20038;-70
2023/03/28 04:43:42;;;;;;;16.53;2.43;;;;;;;-145.18;100.00;60484.78;4993560;28;20034;-70
2023/03/28 04:46:07;;;;;;;15.90;2.90;;;;;;;-145.18;100.00;60484.78;4992875;28;20088;-70
2023/03/28 04:48:32;;;;;;;11.00;3.33;;;;;;;-145.18;100.00;60484.78;4996865;28;20022;-70
2023/03/28 04:50:58;;;;;;;14.87;2.33;;;;;;;-145.18;100.00;60484.78;4993764;28;20468;-70
2023/03/28 04:53:24;;;;;;;16.13;2.60;;;;;;;-145.18;100.00;60484.78;5002110;28;20424;-70
2023/03/28 04:55:49;;;;;;;13.87;2.13;;;;;;;-145.18;100.00;60484.78;5011245;28;20034;-70
2023/03/28 04:58:21;;;;;;;16.93;2.50;;;;;;;-145.18;100.00;60484.78;4992860;28;20034;-70
2023/03/28 05:00:48;;;;;;;17.50;2.47;;;;;;;-145.18;100.00;60484.78;4994000;28;20041;-70
2023/03/28 05:03:19;;;;;;;15.20;2.70;;;;;;;-145.18;100.00;60484.78;4996470;28;20482;-70
2023/03/28 05:05:50;;;;;;;15.98;2.83;;;;;;;-145.18;100.00;60484.78;4996715;28;20069;-70
2023/03/28 05:08:17;;;;;;;15.23;2.50;;;;;;;-145.18;100.00;60484.78;4996536;28;20030;-70
2023/03/28 05:10:46;;;;;;;15.60;2.73;;;;;;;-145.18;100.00;60484.78;4996479;28;20364;-70
2023/03/28 05:13:12;;;;;;;15.47;2.87;;;;;;;-145.18;100.00;60484.78;4997119;28;20038;-70
2023/03/28 05:15:38;;;;;;;13.20;3.07;;;;;;;-145.18;100.00;60484.78;4996453;28;20023;-70
2023/03/28 05:18:04;;;;;;;14.13;2.50;;;;;;;-145.18;100.00;60484.78;4997030;28;20521;-70
2023/03/28 05:20:30;;;;;;;10.83;2.40;;;;;;;-145.18;100.00;60484.78;4997175;28;20192;-70
2023/03/28 05:22:56;;;;;;;18.80;3.10;;;;;;;-145.18;100.00;60484.78;5008624;28;20222;-70
2023/03/28 05:25:21;;;;;;;10.87;2.77;;;;;;;-145.18;100.00;60484.78;4978244;28;20031;-70
2023/03/28 05:27:47;;;;;;;13.53;2.77;;;;;;;-145.18;100.00;60484.78;5001443;28;20034;-70
2023/03/28 05:30:13;;;;;;;16.03;2.70;;;;;;;-145.18;100.00;60484.78;4998453;28;21805;-70
2023/03/28 05:32:38;;;;;;;10.87;2.87;;;;;;;-145.18;100.00;60484.78;5000489;28;20041;-70
2023/03/28 05:35:06;;;;;;;8.03;2.47;;;;;;;-145.18;100.00;60484.78;4995221;28;20034;-70
2023/03/28 05:37:32;;;;;;;15.13;2.80;;;;;;;-145.18;100.00;60484.78;4996624;28;20037;-70
2023/03/28 05:39:58;;;;;;;15.83;3.00;;;;;;;-145.18;100.00;60484.78;4992190;28;20080;-70
2023/03/28 05:42:23;;;;;;;13.83;3.20;;;;;;;-145.18;100.00;60484.78;4996385;28;20105;-70
2023/03/28 05:44:49;;;;;;;13.03;2.97;;;;;;;-145.18;100.00;60484.78;4996491;28;20058;-70
2023/03/28 05:47:15;;;;;;;13.40;2.80;;;;;;;-145.18;100.00;60484.78;5002900;28;20022;-70
2023/03/28 05:49:41;;;;;;;12.87;2.57;;;;;;;-145.18;100.00;60484.78;4993299;28;20041;-70
2023/03/28 05:52:06;;;;;;;10.50;2.97;;;;;;;-145.18;100.00;60484.78;4996269;28;20023;-70
2023/03/28 05:54:31;;;;;;;16.40;3.80;;;;;;;-145.18;100.00;60484.78;4996434;28;20026;-70
2023/03/28 05:56:57;;;;;;;13.37;2.57;;;;;;;-145.18;100.00;60484.78;4995338;28;20033;-70
2023/03/28 05:59:26;;;;;;;12.77;2.40;;;;;;;-145.18;100.00;60484.78;4998033;28;21705;-70
2023/03/28 06:01:51;;;;;;;10.27;2.37;;;;;;;-145.18;100.00;60484.78;4995478;28;20431;-70
2023/03/28 06:04:21;;;;;;;15.23;3.17;;;;;;;-145.18;100.00;60484.78;4995872;28;20117;-70
2023/03/28 06:06:47;;;;;;;14.03;2.63;;;;;;;-145.18;100.00;60484.78;4994894;28;20036;-70
2023/03/28 06:09:14;;;;;;;16.50;2.40;;;;;;;-145.18;100.00;60484.78;4995059;28;20101;-70
2023/03/28 06:11:40;;;;;;;13.57;3.00;;;;;;;-145.18;100.00;60484.78;4995090;28;20026;-70
2023/03/28 06:14:06;;;;;;;17.03;3.37;;;;;;;-145.18;100.00;60484.78;4995152;28;20030;-70
2023/03/28 06:16:31;;;;;;;17.00;3.10;;;;;;;-145.18;100.00;60484.78;4996152;28;20520;-70
2023/03/28 06:18:57;;;;;;;13.70;2.70;;;;;;;-145.18;100.00;60484.78;4995830;28;20514;-71
2023/03/28 06:21:22;;;;;;;17.73;2.80;;;;;;;-145.18;100.00;60484.78;4995858;28;20053;-70
2023/03/28 06:23:48;;;;;;;14.47;3.57;;;;;;;-145.18;100.00;60484.78;4996842;28;20026;-70
2023/03/28 06:26:13;;;;;;;13.97;2.67;;;;;;;-145.18;100.00;60484.78;4995594;28;20412;-70
2023/03/28 06:28:39;;;;;;;13.40;3.50;;;;;;;-145.18;100.00;60484.78;4995990;28;20089;-70
2023/03/28 06:31:04;;;;;;;15.10;2.80;;;;;;;-145.18;100.00;60484.78;4995751;28;20113;-70
2023/03/28 06:33:30;;;;;;;15.00;2.87;;;;;;;-145.18;100.00;60484.78;4995462;28;20030;-70
2023/03/28 06:35:56;;;;;;;19.90;3.80;;;;;;;-145.18;100.00;60484.78;4995686;28;20026;-70
2023/03/28 06:38:21;;;;;;;16.37;3.03;;;;;;;-145.18;100.00;60484.78;4995803;28;20491;-70
2023/03/28 06:40:46;;;;;;;17.17;2.60;;;;;;;-145.18;100.00;60484.78;4995638;28;20031;-70
2023/03/28 06:43:12;;;;;;;11.17;2.70;;;;;;;-145.18;100.00;60484.78;4995315;28;20427;-70
2023/03/28 06:45:39;;;;;;;11.50;2.73;;;;;;;-145.18;100.00;60484.78;4995373;28;20034;-70
2023/03/28 06:48:04;;;;;;;19.03;2.90;;;;;;;-145.18;100.00;60484.78;4994854;28;20105;-70
2023/03/28 06:50:30;;;;;;;14.37;3.20;;;;;;;-145.18;100.00;60484.78;4995798;28;20447;-70
2023/03/28 06:52:55;;;;;;;11.20;3.00;;;;;;;-145.18;100.00;60484.78;4995444;28;20113;-70
2023/03/28 06:55:21;;;;;;;12.43;3.20;;;;;;;-145.18;100.00;60484.78;4995430;28;20459;-70
2023/03/28 06:57:47;;;;;;;18.87;3.90;;;;;;;-145.18;100.00;60484.78;4995268;28;20027;-70
2023/03/28 07:00:13;;;;;;;13.93;2.83;;;;;;;-145.18;100.00;60484.78;4995213;28;20483;-70
2023/03/28 07:02:39;;;;;;;14.37;2.87;;;;;;;-145.18;100.00;60484.78;5004859;28;20053;-70
2023/03/28 07:05:05;;;;;;;7.77;1.83;;;;;;;-145.18;100.00;60484.78;5014768;28;20057;-70
2023/03/28 07:07:30;;;;;;;8.10;2.30;;;;;;;-145.18;100.00;60484.78;5014666;28;20021;-70
2023/03/28 07:09:56;;;;;;;17.90;3.60;;;;;;;-145.18;100.00;60484.78;5014621;28;20030;-70
2023/03/28 07:12:21;;;;;;;13.13;3.10;;;;;;;-145.18;100.00;60484.78;5014546;28;20054;-70
2023/03/28 07:14:47;;;;;;;19.53;3.03;;;;;;;-145.18;100.00;60484.78;5012441;28;20397;-71
2023/03/28 07:17:12;;;;;;;11.07;2.30;;;;;;;-145.18;100.00;60484.78;5013262;28;20053;-70
2023/03/28 07:19:38;;;;;;;15.57;1.80;;;;;;;-145.18;100.00;60484.78;5014700;28;20054;-70
2023/03/28 07:22:04;;;;;;;10.37;1.97;;;;;;;-145.18;100.00;60484.78;5014630;28;20041;-70
2023/03/28 07:24:29;;;;;;;7.10;1.90;;;;;;;-145.18;100.00;60484.78;5013713;28;20034;-70
2023/03/28 07:26:55;;;;;;;10.43;1.70;;;;;;;-145.18;100.00;60484.78;5014430;28;20038;-70
2023/03/28 07:29:20;;;;;;;13.17;2.33;;;;;;;-145.18;100.00;60484.78;5014473;28;20033;-71
2023/03/28 07:31:46;;;;;;;14.70;2.27;;;;;;;-145.18;100.00;60484.78;5014207;28;20030;-71
2023/03/28 07:34:11;;;;;;;10.60;1.93;;;;;;;-145.18;100.00;60484.78;5014303;28;20022;-71
2023/03/28 07:36:38;;;;;;;12.27;1.93;;;;;;;-145.18;100.00;60484.78;5014221;28;20025;-71
2023/03/28 07:39:04;;;;;;;12.53;2.40;;;;;;;-145.18;100.00;60484.78;5013053;28;20032;-71
2023/03/28 07:41:30;;;;;;;11.87;2.30;;;;;;;-145.18;100.00;60484.78;5011671;28;20026;-71
2023/03/28 07:43:55;;;;;;;10.97;2.30;;;;;;;-145.18;100.00;60484.78;5013918;28;20044;-71
2023/03/28 07:46:22;;;;;;;11.50;1.70;;;;;;;-145.18;100.00;60484.78;5013782;28;20038;-71
2023/03/28 07:48:48;;;;;;;9.10;1.97;;;;;;;-145.18;100.00;60484.78;4995024;28;20042;-71
2023/03/28 07:51:14;;;;;;;9.50;2.10;;;;;;;-145.18;100.00;60484.78;4994189;28;20041;-71
2023/03/28 07:53:39;;;;;;;9.30;1.93;;;;;;;-145.18;100.00;60484.78;4994140;28;20034;-71
2023/03/28 07:56:10;;;;;;;14.53;2.00;;;;;;;-145.18;100.00;60484.78;4994274;28;20030;-71
2023/03/28 07:58:37;;;;;;;14.50;2.50;;;;;;;-145.18;100.00;60484.78;4994293;28;20483;-72
2023/03/28 08:01:08;;;;;;;11.80;1.87;;;;;;;-145.18;100.00;60484.78;4994153;28;20022;-71
2023/03/28 08:03:34;;;;;;;12.30;2.10;;;;;;;-145.18;100.00;60484.78;4994122;28;20027;-71
2023/03/28 08:06:01;;;;;;;12.80;2.07;;;;;;;-145.18;100.00;60484.78;4994106;28;20093;-71
2023/03/28 08:08:28;;;;;;;10.13;2.17;;;;;;;-145.18;100.00;60484.78;4993989;28;20105;-71
2023/03/28 08:10:54;;;;;;;10.07;1.90;;;;;;;-145.18;100.00;60484.78;4994123;28;20061;-71
2023/03/28 08:13:19;;;;;;;9.50;2.00;;;;;;;-145.18;100.00;60484.78;4993765;28;20050;-71
2023/03/28 08:15:48;;;;;;;11.80;2.00;;;;;;;-145.18;100.00;60484.78;4993868;28;20502;-71
2023/03/28 08:18:19;;;;;;;10.33;1.93;;;;;;;-145.18;100.00;60484.78;4994118;28;20265;-71
2023/03/28 08:20:47;;;;;;;11.40;2.35;;;;;;;-145.18;100.00;60484.78;4994019;28;20035;-71
2023/03/28 08:23:13;;;;;;;10.33;1.73;;;;;;;-145.18;100.00;60484.78;4993769;28;20030;-71
2023/03/28 08:25:38;;;;;;;10.77;1.57;;;;;;;-145.18;100.00;60484.78;4975226;28;20053;-71
2023/03/28 08:28:04;;;;;;;9.03;1.60;;;;;;;-145.18;100.00;60484.78;4974325;28;20047;-71
2023/03/28 08:30:30;;;;;;;10.90;1.70;;;;;;;-145.18;100.00;60484.78;4974406;28;20030;-72
2023/03/28 08:32:55;;;;;;;9.00;1.73;;;;;;;-145.18;100.00;60484.78;4974344;28;20061;-71
2023/03/28 08:35:21;;;;;;;13.77;2.03;;;;;;;-145.18;100.00;60484.78;4976417;28;20381;-72
2023/03/28 08:37:48;;;;;;;8.02;1.90;;;;;;;-145.18;100.00;60484.78;4974274;28;20093;-71
2023/03/28 08:40:16;;;;;;;10.37;1.60;;;;;;;-145.18;100.00;60484.78;4976640;28;20046;-72
2023/03/28 08:43:25;;;;;;;9.50;1.40;;;;;;;-145.18;100.00;60484.78;4974465;28;20034;-72
2023/03/28 08:45:57;;;;;;;8.93;1.70;;;;;;;-145.18;100.00;60484.78;4971943;28;20054;-71
2023/03/28 08:48:46;;;;;;;13.10;1.70;;;;;;;-145.18;100.00;60484.78;4956584;28;20051;-71
2023/03/28 08:51:35;;;;;;;7.07;1.40;;;;;;;-145.18;100.00;60484.78;4952848;28;20035;-72
2023/03/28 08:54:23;;;;;;;11.20;1.60;;;;;;;-145.18;100.00;60484.78;4953887;28;20507;-71
2023/03/28 08:56:55;;;;;;;7.40;1.47;;;;;;;-145.18;100.00;60484.78;4956477;28;20042;-71
2023/03/28 09:00:13;;;;;;;7.70;1.80;;;;;;;-145.18;100.00;60484.78;4972013;28;20031;-72
2023/03/28 09:02:40;;;;;;;9.60;1.57;;;;;;;-145.18;100.00;60484.78;4957796;28;20090;-72
2023/03/28 09:05:12;;;;;;;8.55;1.60;;;;;;;-145.18;100.00;60484.78;4971986;28;20093;-72
2023/03/28 09:08:23;;;;;;;8.70;1.70;;;;;;;-145.18;100.00;60484.78;4971799;28;20086;-72
2023/03/28 09:11:47;;;;;;;11.13;1.83;;;;;;;-145.18;100.00;60484.78;4914571;29;20529;-72
2023/03/28 09:15:03;;;;;;;6.20;1.20;;;;;;;-145.18;100.00;60484.78;4874952;29;20044;-71
2023/03/28 09:18:10;;;;;;;9.13;1.70;;;;;;;-145.18;100.00;60484.78;4858217;29;20053;-71
2023/03/28 09:20:46;;;;;;;7.13;1.40;;;;;;;-145.18;100.00;60484.78;4848053;29;20400;-72
2023/03/28 09:23:48;;;;;;;7.82;1.30;;;;;;;-145.18;100.00;60484.78;4803533;29;20050;-72
2023/03/28 09:26:16;;;;;;;7.15;1.70;;;;;;;-145.18;100.00;60484.78;4803667;29;20043;-72
2023/03/28 09:29:12;;;;;;;8.52;1.40;;;;;;;-145.18;100.00;60484.78;4803473;29;20043;-72
2023/03/28 09:31:47;;;;;;;8.00;1.40;;;;;;;-145.18;100.00;60484.78;4803030;29;20050;-72
2023/03/28 09:34:26;;;;;;;8.70;1.95;;;;;;;-145.18;100.00;60484.78;4804701;29;20091;-71
2023/03/28 09:36:55;;;;;;;6.95;1.73;;;;;;;-145.18;100.00;60484.78;4803416;29;20084;-72
2023/03/28 09:39:44;;;;;;;9.30;1.60;;;;;;;-145.18;100.00;60484.78;4803438;29;20446;-72
2023/03/28 09:42:55;;;;;;;7.95;1.40;;;;;;;-145.18;100.00;60484.78;4803281;29;20042;-71
2023/03/28 09:45:42;;;;;;;6.28;1.77;;;;;;;-145.18;100.00;60484.78;4803942;29;20125;-72
2023/03/28 09:48:14;;;;;;;7.20;1.73;;;;;;;-145.18;100.00;60484.78;4836214;29;20145;-71
2023/03/28 09:50:39;;;;;;;7.37;1.20;;;;;;;-145.18;100.00;60484.78;4874976;29;20119;-72
2023/03/28 09:53:05;;;;;;;6.83;1.30;;;;;;;-145.18;100.00;60484.78;4898692;29;20111;-71
2023/03/28 09:55:30;;;;;;;4.73;1.10;;;;;;;-145.18;100.00;60484.78;4966128;28;20470;-71
2023/03/28 09:58:25;;;;;;;7.70;1.40;;;;;;;-145.18;100.00;60484.78;4974924;28;20073;-71
2023/03/28 10:00:52;;;;;;;11.60;1.60;;;;;;;-145.18;100.00;60484.78;4966808;28;20042;-71
2023/03/28 10:03:28;;;;;;;7.03;1.40;;;;;;;-145.18;100.00;60484.78;4976632;28;20093;-72
2023/03/28 10:05:58;;;;;;;6.80;1.50;;;;;;;-145.18;100.00;60484.78;4976591;28;20031;-71
2023/03/28 10:08:32;;;;;;;10.50;1.63;;;;;;;-145.18;100.00;60484.78;4976556;28;20045;-71
2023/03/28 10:11:15;;;;;;;4.82;1.00;;;;;;;-145.18;100.00;60484.78;4976972;28;20035;-72
2023/03/28 10:13:46;;;;;;;11.02;1.60;;;;;;;-145.18;100.00;60484.78;4976762;28;20518;-71
2023/03/28 10:16:14;;;;;;;8.60;1.50;;;;;;;-145.18;100.00;60484.78;4976910;28;20035;-71
2023/03/28 10:18:41;;;;;;;7.23;1.70;;;;;;;-145.18;100.00;60484.78;4976444;28;20042;-72
2023/03/28 10:21:20;;;;;;;7.37;1.13;;;;;;;-145.18;100.00;60484.78;4987705;28;20030;-72
2023/03/28 10:23:57;;;;;;;6.63;1.10;;;;;;;-145.18;100.00;60484.78;4995769;28;20360;-71
2023/03/28 10:26:26;;;;;;;8.90;1.63;;;;;;;-145.18;100.00;60484.78;4996047;28;20352;-71
2023/03/28 10:28:53;;;;;;;7.57;1.27;;;;;;;-145.18;100.00;60484.78;4996093;28;20109;-71
2023/03/28 10:31:29;;;;;;;6.77;1.40;;;;;;;-145.18;100.00;60484.78;4995586;28;20058;-71
2023/03/28 10:33:57;;;;;;;9.93;2.23;;;;;;;-145.18;100.00;60484.78;4995576;28;20050;-72
2023/03/28 10:36:33;;;;;;;13.10;2.07;;;;;;;-145.18;100.00;60484.78;4995804;28;20061;-71
2023/03/28 10:39:11;;;;;;;10.47;1.40;;;;;;;-145.18;100.00;60484.78;4995463;28;20410;-71
2023/03/28 10:41:51;;;;;;;7.17;1.33;;;;;;;-145.18;100.00;60484.78;4995574;28;20045;-71
2023/03/28 10:44:24;;;;;;;10.47;1.70;;;;;;;-145.18;100.00;60484.78;4995602;28;20034;-71
2023/03/28 10:46:51;;;;;;;9.07;1.50;;;;;;;-145.18;100.00;60484.78;4997662;28;20022;-71
2023/03/28 10:49:19;;;;;;;9.43;1.60;;;;;;;-145.18;100.00;60484.78;4995692;28;20086;-71
2023/03/28 10:51:45;;;;;;;9.70;1.60;;;;;;;-145.18;100.00;60484.78;4995606;28;20069;-71
2023/03/28 10:54:40;;;;;;;9.53;1.43;;;;;;;-145.18;100.00;60484.78;4995543;28;20026;-71
2023/03/28 10:57:46;;;;;;;9.80;1.67;;;;;;;-145.18;100.00;60484.78;4995420;28;20084;-71
2023/03/28 11:00:25;;;;;;;11.43;1.40;;;;;;;-145.18;100.00;60484.78;4988684;28;20070;-71
2023/03/28 11:03:42;;;;;;;8.77;1.50;;;;;;;-145.18;100.00;60484.78;4993123;28;20038;-71
2023/03/28 11:06:28;;;;;;;8.33;1.50;;;;;;;-145.18;100.00;60484.78;4936723;29;20090;-71
2023/03/28 11:09:18;;;;;;;9.20;1.80;;;;;;;-145.18;100.00;60484.78;4954315;29;20074;-71
2023/03/28 11:12:12;;;;;;;8.77;1.43;;;;;;;-145.18;100.00;60484.78;4954199;29;20532;-71
2023/03/28 11:15:30;;;;;;;8.40;1.50;;;;;;;-145.18;100.00;60484.78;4954145;29;20079;-72
2023/03/28 11:18:28;;;;;;;9.80;1.67;;;;;;;-145.18;100.00;60484.78;4897113;29;20063;-71
2023/03/28 11:21:31;;;;;;;10.00;1.83;;;;;;;-145.18;100.00;60484.78;4841246;29;20038;-71
2023/03/28 11:24:35;;;;;;;7.10;1.50;;;;;;;-145.18;100.00;60484.78;4819228;29;20129;-71
2023/03/28 11:27:21;;;;;;;6.60;1.60;;;;;;;-145.18;100.00;60484.78;4822172;29;20466;-71
2023/03/28 11:30:15;;;;;;;9.13;1.90;;;;;;;-145.18;100.00;60484.78;4822397;29;20542;-71
2023/03/28 11:32:56;;;;;;;6.67;1.30;;;;;;;-145.18;100.00;60484.78;4822935;29;20061;-71
2023/03/28 11:35:39;;;;;;;8.57;1.80;;;;;;;-145.18;100.00;60484.78;4813836;29;20038;-71